sensor_id;sensor_type;location;lat;lon;timestamp;pressure;altitude;pressure_sealevel;temperature;humidity
77017;BME280;65949;53.132;17.930;2023-05-29T00:02:12;101400.77;;;11.73;58.30
77017;BME280;65949;53.132;17.930;2023-05-29T00:04:39;101402.86;;;11.69;58.35
77017;BME280;65949;53.132;17.930;2023-05-29T00:07:06;101399.67;;;11.65;58.52
77017;BME280;65949;53.132;17.930;2023-05-29T00:09:33;101399.52;;;11.63;58.59
77017;BME280;65949;53.132;17.930;2023-05-29T00:11:59;101401.64;;;11.59;58.84
77017;BME280;65949;53.132;17.930;2023-05-29T00:14:27;101403.06;;;11.57;58.82
77017;BME280;65949;53.132;17.930;2023-05-29T00:16:54;101401.91;;;11.57;58.89
77017;BME280;65949;53.132;17.930;2023-05-29T00:19:20;101399.67;;;11.57;59.19
77017;BME280;65949;53.132;17.930;2023-05-29T00:21:47;101399.61;;;11.56;59.32
77017;BME280;65949;53.132;17.930;2023-05-29T00:24:15;101402.08;;;11.53;59.87
77017;BME280;65949;53.132;17.930;2023-05-29T00:26:43;101405.02;;;11.50;59.67
77017;BME280;65949;53.132;17.930;2023-05-29T00:29:09;101403.44;;;11.49;59.45
77017;BME280;65949;53.132;17.930;2023-05-29T00:31:36;101404.46;;;11.48;59.50
77017;BME280;65949;53.132;17.930;2023-05-29T00:34:03;101413.75;;;11.45;59.57
77017;BME280;65949;53.132;17.930;2023-05-29T00:36:30;101410.70;;;11.41;59.85
77017;BME280;65949;53.132;17.930;2023-05-29T00:38:58;101410.86;;;11.36;60.03
77017;BME280;65949;53.132;17.930;2023-05-29T00:41:24;101406.80;;;11.30;60.07
77017;BME280;65949;53.132;17.930;2023-05-29T00:43:51;101407.86;;;11.24;60.26
77017;BME280;65949;53.132;17.930;2023-05-29T00:46:18;101412.45;;;11.21;60.42
77017;BME280;65949;53.132;17.930;2023-05-29T00:48:47;101410.81;;;11.16;60.31
77017;BME280;65949;53.132;17.930;2023-05-29T00:51:14;101410.74;;;11.12;60.52
77017;BME280;65949;53.132;17.930;2023-05-29T00:53:43;101406.92;;;11.08;60.40
77017;BME280;65949;53.132;17.930;2023-05-29T00:56:10;101406.88;;;11.06;60.64
77017;BME280;65949;53.132;17.930;2023-05-29T00:58:37;101405.07;;;11.04;60.72
77017;BME280;65949;53.132;17.930;2023-05-29T01:01:04;101404.67;;;11.02;60.76
77017;BME280;65949;53.132;17.930;2023-05-29T01:03:33;101412.40;;;10.99;60.97
77017;BME280;65949;53.132;17.930;2023-05-29T01:06:02;101409.34;;;10.97;60.68
77017;BME280;65949;53.132;17.930;2023-05-29T01:08:29;101410.73;;;10.93;60.98
77017;BME280;65949;53.132;17.930;2023-05-29T01:11:01;101412.34;;;10.89;61.24
77017;BME280;65949;53.132;17.930;2023-05-29T01:13:31;101417.78;;;10.85;61.24
77017;BME280;65949;53.132;17.930;2023-05-29T01:16:31;101416.34;;;10.83;61.56
77017;BME280;65949;53.132;17.930;2023-05-29T01:19:00;101412.91;;;10.80;61.51
77017;BME280;65949;53.132;17.930;2023-05-29T01:21:43;101412.70;;;10.80;61.69
77017;BME280;65949;53.132;17.930;2023-05-29T01:24:25;101407.73;;;10.78;61.79
77017;BME280;65949;53.132;17.930;2023-05-29T01:27:08;101412.81;;;10.77;61.75
77017;BME280;65949;53.132;17.930;2023-05-29T01:29:39;101410.28;;;10.73;61.99
77017;BME280;65949;53.132;17.930;2023-05-29T01:32:09;101414.44;;;10.68;62.01
77017;BME280;65949;53.132;17.930;2023-05-29T01:34:38;101408.61;;;10.63;62.19
77017;BME280;65949;53.132;17.930;2023-05-29T01:37:04;101401.70;;;10.59;62.31
77017;BME280;65949;53.132;17.930;2023-05-29T01:39:31;101405.34;;;10.56;62.29
77017;BME280;65949;53.132;17.930;2023-05-29T01:41:59;101408.46;;;10.53;62.55
77017;BME280;65949;53.132;17.930;2023-05-29T01:44:27;101411.45;;;10.50;62.32
77017;BME280;65949;53.132;17.930;2023-05-29T01:46:55;101415.73;;;10.48;62.50
77017;BME280;65949;53.132;17.930;2023-05-29T01:49:24;101416.98;;;10.45;62.57
77017;BME280;65949;53.132;17.930;2023-05-29T01:51:51;101416.48;;;10.41;62.71
77017;BME280;65949;53.132;17.930;2023-05-29T01:54:17;101417.05;;;10.38;62.85
77017;BME280;65949;53.132;17.930;2023-05-29T01:56:46;101420.30;;;10.34;62.81
77017;BME280;65949;53.132;17.930;2023-05-29T01:59:13;101419.39;;;10.29;63.12
77017;BME280;65949;53.132;17.930;2023-05-29T02:01:40;101424.91;;;10.25;63.47
77017;BME280;65949;53.132;17.930;2023-05-29T02:04:07;101419.48;;;10.13;63.45
77017;BME280;65949;53.132;17.930;2023-05-29T02:06:34;101419.60;;;10.05;63.47
77017;BME280;65949;53.132;17.930;2023-05-29T02:09:01;101418.02;;;9.99;63.61
77017;BME280;65949;53.132;17.930;2023-05-29T02:11:27;101417.74;;;9.97;63.72
77017;BME280;65949;53.132;17.930;2023-05-29T02:13:54;101421.40;;;9.92;64.44
77017;BME280;65949;53.132;17.930;2023-05-29T02:16:21;101418.13;;;9.83;64.32
77017;BME280;65949;53.132;17.930;2023-05-29T02:18:48;101417.80;;;9.77;64.29
77017;BME280;65949;53.132;17.930;2023-05-29T02:21:14;101420.43;;;9.73;64.55
77017;BME280;65949;53.132;17.930;2023-05-29T02:23:41;101419.90;;;9.67;65.33
77017;BME280;65949;53.132;17.930;2023-05-29T02:26:08;101423.21;;;9.61;65.36
77017;BME280;65949;53.132;17.930;2023-05-29T02:28:34;101420.23;;;9.58;65.45
77017;BME280;65949;53.132;17.930;2023-05-29T02:31:02;101422.40;;;9.55;65.51
77017;BME280;65949;53.132;17.930;2023-05-29T02:33:29;101421.10;;;9.53;65.66
77017;BME280;65949;53.132;17.930;2023-05-29T02:35:56;101417.98;;;9.53;65.47
77017;BME280;65949;53.132;17.930;2023-05-29T02:38:24;101419.05;;;9.54;65.84
77017;BME280;65949;53.132;17.930;2023-05-29T02:40:50;101419.78;;;9.56;65.74
77017;BME280;65949;53.132;17.930;2023-05-29T02:43:17;101417.11;;;9.59;65.62
77017;BME280;65949;53.132;17.930;2023-05-29T02:45:44;101410.38;;;9.62;65.76
77017;BME280;65949;53.132;17.930;2023-05-29T02:48:10;101407.58;;;9.64;65.79
77017;BME280;65949;53.132;17.930;2023-05-29T02:50:37;101406.23;;;9.67;65.67
77017;BME280;65949;53.132;17.930;2023-05-29T02:53:04;101406.87;;;9.70;65.75
77017;BME280;65949;53.132;17.930;2023-05-29T02:55:31;101401.26;;;9.70;65.71
77017;BME280;65949;53.132;17.930;2023-05-29T02:57:58;101403.76;;;9.73;65.65
77017;BME280;65949;53.132;17.930;2023-05-29T03:00:26;101409.29;;;9.76;65.62
77017;BME280;65949;53.132;17.930;2023-05-29T03:02:56;101411.36;;;9.80;65.72
77017;BME280;65949;53.132;17.930;2023-05-29T03:05:23;101406.95;;;9.83;65.71
77017;BME280;65949;53.132;17.930;2023-05-29T03:07:49;101406.78;;;9.88;65.68
77017;BME280;65949;53.132;17.930;2023-05-29T03:10:16;101409.55;;;9.93;65.50
77017;BME280;65949;53.132;17.930;2023-05-29T03:12:44;101417.98;;;9.98;65.48
77017;BME280;65949;53.132;17.930;2023-05-29T03:15:11;101422.91;;;10.04;65.55
77017;BME280;65949;53.132;17.930;2023-05-29T03:17:37;101424.22;;;10.04;65.50
77017;BME280;65949;53.132;17.930;2023-05-29T03:20:06;101422.17;;;10.06;65.52
77017;BME280;65949;53.132;17.930;2023-05-29T03:22:34;101422.15;;;10.09;65.47
77017;BME280;65949;53.132;17.930;2023-05-29T03:25:06;101423.89;;;10.16;65.39
77017;BME280;65949;53.132;17.930;2023-05-29T03:27:34;101430.46;;;10.23;65.38
77017;BME280;65949;53.132;17.930;2023-05-29T03:30:07;101435.88;;;10.34;65.15
77017;BME280;65949;53.132;17.930;2023-05-29T03:32:34;101435.80;;;10.77;64.70
77017;BME280;65949;53.132;17.930;2023-05-29T03:35:01;101434.33;;;11.16;63.76
77017;BME280;65949;53.132;17.930;2023-05-29T03:37:30;101431.20;;;11.94;62.55
77017;BME280;65949;53.132;17.930;2023-05-29T03:39:56;101429.77;;;12.98;61.13
77017;BME280;65949;53.132;17.930;2023-05-29T03:42:23;101433.57;;;13.89;59.66
77017;BME280;65949;53.132;17.930;2023-05-29T03:44:50;101435.70;;;14.71;58.10
77017;BME280;65949;53.132;17.930;2023-05-29T03:47:17;101439.54;;;15.41;56.83
77017;BME280;65949;53.132;17.930;2023-05-29T03:49:45;101435.05;;;16.12;55.64
77017;BME280;65949;53.132;17.930;2023-05-29T03:52:12;101428.54;;;16.82;54.05
77017;BME280;65949;53.132;17.930;2023-05-29T03:54:38;101425.27;;;17.43;52.55
77017;BME280;65949;53.132;17.930;2023-05-29T03:57:06;101426.88;;;17.93;51.53
77017;BME280;65949;53.132;17.930;2023-05-29T03:59:33;101430.27;;;18.49;50.32
77017;BME280;65949;53.132;17.930;2023-05-29T04:02:00;101433.84;;;19.02;48.70
77017;BME280;65949;53.132;17.930;2023-05-29T04:04:26;101436.43;;;19.47;47.70
77017;BME280;65949;53.132;17.930;2023-05-29T04:06:54;101436.61;;;19.91;46.64
77017;BME280;65949;53.132;17.930;2023-05-29T04:09:20;101435.56;;;20.35;45.69
77017;BME280;65949;53.132;17.930;2023-05-29T04:11:47;101435.96;;;20.77;44.24
77017;BME280;65949;53.132;17.930;2023-05-29T04:14:14;101436.21;;;21.00;42.99
77017;BME280;65949;53.132;17.930;2023-05-29T04:16:41;101432.45;;;21.17;42.92
77017;BME280;65949;53.132;17.930;2023-05-29T04:19:08;101432.58;;;21.39;41.96
77017;BME280;65949;53.132;17.930;2023-05-29T04:21:34;101431.19;;;21.45;41.83
77017;BME280;65949;53.132;17.930;2023-05-29T04:24:01;101432.14;;;21.74;41.36
77017;BME280;65949;53.132;17.930;2023-05-29T04:26:28;101426.35;;;21.95;40.60
77017;BME280;65949;53.132;17.930;2023-05-29T04:28:55;101421.59;;;21.92;40.56
77017;BME280;65949;53.132;17.930;2023-05-29T04:31:25;101426.90;;;22.28;40.26
77017;BME280;65949;53.132;17.930;2023-05-29T04:33:53;101428.89;;;22.61;40.08
77017;BME280;65949;53.132;17.930;2023-05-29T04:36:25;101433.96;;;22.94;39.28
77017;BME280;65949;53.132;17.930;2023-05-29T04:39:05;101435.55;;;23.13;38.43
77017;BME280;65949;53.132;17.930;2023-05-29T04:41:32;101441.52;;;23.15;38.24
77017;BME280;65949;53.132;17.930;2023-05-29T04:44:00;101443.59;;;23.13;37.74
77017;BME280;65949;53.132;17.930;2023-05-29T04:46:32;101441.63;;;22.97;37.84
77017;BME280;65949;53.132;17.930;2023-05-29T04:49:00;101439.64;;;22.97;37.83
77017;BME280;65949;53.132;17.930;2023-05-29T04:51:29;101442.82;;;23.14;37.40
77017;BME280;65949;53.132;17.930;2023-05-29T04:53:56;101444.16;;;23.33;37.07
77017;BME280;65949;53.132;17.930;2023-05-29T04:56:23;101437.80;;;23.39;37.03
77017;BME280;65949;53.132;17.930;2023-05-29T04:58:50;101434.13;;;23.56;36.86
77017;BME280;65949;53.132;17.930;2023-05-29T05:01:17;101428.73;;;23.48;36.58
77017;BME280;65949;53.132;17.930;2023-05-29T05:03:44;101432.20;;;23.44;36.12
77017;BME280;65949;53.132;17.930;2023-05-29T05:06:12;101429.69;;;23.29;36.34
77017;BME280;65949;53.132;17.930;2023-05-29T05:08:39;101429.88;;;23.14;36.36
77017;BME280;65949;53.132;17.930;2023-05-29T05:11:06;101430.29;;;23.23;36.86
77017;BME280;65949;53.132;17.930;2023-05-29T05:13:33;101434.77;;;23.41;36.26
77017;BME280;65949;53.132;17.930;2023-05-29T05:16:00;101437.45;;;23.19;36.34
77017;BME280;65949;53.132;17.930;2023-05-29T05:18:28;101435.17;;;22.75;36.74
77017;BME280;65949;53.132;17.930;2023-05-29T05:21:03;101433.77;;;22.30;37.54
77017;BME280;65949;53.132;17.930;2023-05-29T05:23:30;101439.04;;;22.18;37.63
77017;BME280;65949;53.132;17.930;2023-05-29T05:25:57;101449.95;;;21.25;38.88
77017;BME280;65949;53.132;17.930;2023-05-29T05:28:24;101446.11;;;21.03;39.20
77017;BME280;65949;53.132;17.930;2023-05-29T05:30:50;101440.19;;;21.45;38.78
77017;BME280;65949;53.132;17.930;2023-05-29T05:33:18;101440.52;;;21.76;38.45
77017;BME280;65949;53.132;17.930;2023-05-29T05:35:44;101436.86;;;21.95;38.44
77017;BME280;65949;53.132;17.930;2023-05-29T05:38:11;101437.40;;;22.24;37.80
77017;BME280;65949;53.132;17.930;2023-05-29T05:40:38;101446.16;;;22.33;37.19
77017;BME280;65949;53.132;17.930;2023-05-29T05:43:13;101448.06;;;22.31;36.81
77017;BME280;65949;53.132;17.930;2023-05-29T05:46:15;101444.02;;;22.18;36.62
77017;BME280;65949;53.132;17.930;2023-05-29T05:48:44;101448.80;;;22.17;36.77
77017;BME280;65949;53.132;17.930;2023-05-29T05:51:11;101453.13;;;22.44;36.64
77017;BME280;65949;53.132;17.930;2023-05-29T05:53:39;101451.71;;;22.66;36.31
77017;BME280;65949;53.132;17.930;2023-05-29T05:56:06;101456.59;;;22.90;35.66
77017;BME280;65949;53.132;17.930;2023-05-29T05:58:32;101462.49;;;23.08;35.24
77017;BME280;65949;53.132;17.930;2023-05-29T06:01:00;101464.69;;;23.09;34.86
77017;BME280;65949;53.132;17.930;2023-05-29T06:03:27;101461.04;;;23.04;35.63
77017;BME280;65949;53.132;17.930;2023-05-29T06:06:01;101457.98;;;23.05;34.83
77017;BME280;65949;53.132;17.930;2023-05-29T06:08:28;101459.17;;;22.84;35.19
77017;BME280;65949;53.132;17.930;2023-05-29T06:10:54;101458.46;;;22.66;34.90
77017;BME280;65949;53.132;17.930;2023-05-29T06:13:21;101454.61;;;22.35;35.75
77017;BME280;65949;53.132;17.930;2023-05-29T06:15:51;101450.95;;;21.88;36.27
77017;BME280;65949;53.132;17.930;2023-05-29T06:18:18;101454.46;;;21.19;37.29
77017;BME280;65949;53.132;17.930;2023-05-29T06:20:44;101455.07;;;21.12;37.72
77017;BME280;65949;53.132;17.930;2023-05-29T06:23:12;101451.32;;;20.98;37.76
77017;BME280;65949;53.132;17.930;2023-05-29T06:25:39;101451.36;;;20.70;37.50
77017;BME280;65949;53.132;17.930;2023-05-29T06:28:06;101450.77;;;20.43;38.36
77017;BME280;65949;53.132;17.930;2023-05-29T06:30:33;101452.74;;;20.10;38.71
77017;BME280;65949;53.132;17.930;2023-05-29T06:32:59;101444.30;;;19.85;39.27
77017;BME280;65949;53.132;17.930;2023-05-29T06:35:31;101448.85;;;19.60;39.97
77017;BME280;65949;53.132;17.930;2023-05-29T06:37:58;101453.88;;;19.36;40.88
77017;BME280;65949;53.132;17.930;2023-05-29T06:40:25;101450.08;;;19.15;40.84
77017;BME280;65949;53.132;17.930;2023-05-29T06:42:52;101449.79;;;18.97;41.68
77017;BME280;65949;53.132;17.930;2023-05-29T06:45:19;101449.58;;;18.83;42.23
77017;BME280;65949;53.132;17.930;2023-05-29T06:47:45;101448.34;;;18.74;42.49
77017;BME280;65949;53.132;17.930;2023-05-29T06:50:12;101453.06;;;18.69;42.69
77017;BME280;65949;53.132;17.930;2023-05-29T06:52:39;101447.97;;;18.74;43.11
77017;BME280;65949;53.132;17.930;2023-05-29T06:55:25;101448.66;;;18.65;43.13
77017;BME280;65949;53.132;17.930;2023-05-29T06:57:53;101450.17;;;18.64;42.69
77017;BME280;65949;53.132;17.930;2023-05-29T07:00:20;101451.33;;;18.72;42.97
77017;BME280;65949;53.132;17.930;2023-05-29T07:02:56;101452.69;;;18.76;42.79
77017;BME280;65949;53.132;17.930;2023-05-29T07:05:23;101454.25;;;18.71;42.87
77017;BME280;65949;53.132;17.930;2023-05-29T07:07:50;101458.55;;;18.73;43.06
77017;BME280;65949;53.132;17.930;2023-05-29T07:10:16;101459.40;;;18.65;43.52
77017;BME280;65949;53.132;17.930;2023-05-29T07:12:43;101461.84;;;18.57;43.66
77017;BME280;65949;53.132;17.930;2023-05-29T07:15:10;101465.67;;;18.55;43.57
77017;BME280;65949;53.132;17.930;2023-05-29T07:17:37;101466.11;;;18.61;43.30
77017;BME280;65949;53.132;17.930;2023-05-29T07:20:12;101469.36;;;18.70;43.14
77017;BME280;65949;53.132;17.930;2023-05-29T07:22:39;101475.92;;;18.74;42.58
77017;BME280;65949;53.132;17.930;2023-05-29T07:25:06;101473.45;;;18.84;42.63
77017;BME280;65949;53.132;17.930;2023-05-29T07:27:33;101471.50;;;18.83;42.78
77017;BME280;65949;53.132;17.930;2023-05-29T07:30:02;101472.39;;;18.81;43.13
77017;BME280;65949;53.132;17.930;2023-05-29T07:32:29;101475.27;;;18.99;43.31
77017;BME280;65949;53.132;17.930;2023-05-29T07:34:57;101479.52;;;18.95;43.09
77017;BME280;65949;53.132;17.930;2023-05-29T07:37:23;101478.21;;;18.86;41.95
77017;BME280;65949;53.132;17.930;2023-05-29T07:39:50;101483.27;;;18.88;42.98
77017;BME280;65949;53.132;17.930;2023-05-29T07:42:36;101488.05;;;18.96;43.62
77017;BME280;65949;53.132;17.930;2023-05-29T07:45:03;101488.84;;;19.04;43.76
77017;BME280;65949;53.132;17.930;2023-05-29T07:47:30;101484.21;;;19.03;44.02
77017;BME280;65949;53.132;17.930;2023-05-29T07:49:56;101483.27;;;19.01;44.49
77017;BME280;65949;53.132;17.930;2023-05-29T07:52:25;101492.11;;;19.04;44.61
77017;BME280;65949;53.132;17.930;2023-05-29T07:54:52;101491.01;;;19.21;43.90
77017;BME280;65949;53.132;17.930;2023-05-29T07:57:19;101491.73;;;19.39;43.54
77017;BME280;65949;53.132;17.930;2023-05-29T07:59:47;101492.84;;;19.38;43.05
77017;BME280;65949;53.132;17.930;2023-05-29T08:02:16;101492.70;;;19.38;43.39
77017;BME280;65949;53.132;17.930;2023-05-29T08:05:06;101493.11;;;19.45;43.50
77017;BME280;65949;53.132;17.930;2023-05-29T08:07:36;101489.95;;;19.51;42.92
77017;BME280;65949;53.132;17.930;2023-05-29T08:10:03;101495.30;;;19.44;43.23
77017;BME280;65949;53.132;17.930;2023-05-29T08:12:32;101495.16;;;19.46;43.47
77017;BME280;65949;53.132;17.930;2023-05-29T08:15:04;101491.30;;;19.49;43.41
77017;BME280;65949;53.132;17.930;2023-05-29T08:17:30;101487.73;;;19.50;43.25
77017;BME280;65949;53.132;17.930;2023-05-29T08:19:57;101491.98;;;19.53;42.44
77017;BME280;65949;53.132;17.930;2023-05-29T08:22:30;101496.97;;;19.54;41.41
77017;BME280;65949;53.132;17.930;2023-05-29T08:24:57;101499.39;;;19.49;41.54
77017;BME280;65949;53.132;17.930;2023-05-29T08:27:23;101498.98;;;19.45;42.03
77017;BME280;65949;53.132;17.930;2023-05-29T08:29:50;101503.52;;;19.52;41.85
77017;BME280;65949;53.132;17.930;2023-05-29T08:32:17;101502.25;;;19.58;41.62
77017;BME280;65949;53.132;17.930;2023-05-29T08:34:43;101511.11;;;19.69;41.63
77017;BME280;65949;53.132;17.930;2023-05-29T08:37:12;101510.84;;;19.66;41.21
77017;BME280;65949;53.132;17.930;2023-05-29T08:39:39;101507.08;;;19.63;41.89
77017;BME280;65949;53.132;17.930;2023-05-29T08:42:13;101507.05;;;19.76;41.65
77017;BME280;65949;53.132;17.930;2023-05-29T08:44:46;101509.50;;;19.72;40.44
77017;BME280;65949;53.132;17.930;2023-05-29T08:47:17;101507.13;;;19.78;40.71
77017;BME280;65949;53.132;17.930;2023-05-29T08:49:53;101506.55;;;19.92;41.08
77017;BME280;65949;53.132;17.930;2023-05-29T08:52:23;101510.01;;;20.05;41.02
77017;BME280;65949;53.132;17.930;2023-05-29T08:54:52;101511.58;;;20.15;40.68
77017;BME280;65949;53.132;17.930;2023-05-29T08:57:19;101503.79;;;20.26;40.52
77017;BME280;65949;53.132;17.930;2023-05-29T08:59:51;101507.41;;;20.45;39.68
77017;BME280;65949;53.132;17.930;2023-05-29T09:02:18;101506.76;;;20.50;38.69
77017;BME280;65949;53.132;17.930;2023-05-29T09:04:46;101507.39;;;20.39;38.41
77017;BME280;65949;53.132;17.930;2023-05-29T09:07:16;101510.56;;;20.22;38.90
77017;BME280;65949;53.132;17.930;2023-05-29T09:09:45;101513.65;;;20.21;38.63
77017;BME280;65949;53.132;17.930;2023-05-29T09:12:12;101513.13;;;20.14;38.87
77017;BME280;65949;53.132;17.930;2023-05-29T09:14:42;101515.64;;;20.16;39.17
77017;BME280;65949;53.132;17.930;2023-05-29T09:17:09;101521.03;;;20.14;39.59
77017;BME280;65949;53.132;17.930;2023-05-29T09:19:37;101516.59;;;20.07;39.54
77017;BME280;65949;53.132;17.930;2023-05-29T09:22:09;101516.67;;;19.99;39.36
77017;BME280;65949;53.132;17.930;2023-05-29T09:24:37;101524.30;;;19.96;39.16
77017;BME280;65949;53.132;17.930;2023-05-29T09:27:05;101520.85;;;19.94;39.15
77017;BME280;65949;53.132;17.930;2023-05-29T09:29:38;101522.30;;;19.90;39.16
77017;BME280;65949;53.132;17.930;2023-05-29T09:32:10;101519.95;;;19.91;39.16
77017;BME280;65949;53.132;17.930;2023-05-29T09:34:38;101518.04;;;19.95;39.24
77017;BME280;65949;53.132;17.930;2023-05-29T09:37:07;101518.09;;;20.05;39.08
77017;BME280;65949;53.132;17.930;2023-05-29T09:42:08;101510.95;;;20.30;39.12
77017;BME280;65949;53.132;17.930;2023-05-29T09:44:35;101507.05;;;20.46;39.06
77017;BME280;65949;53.132;17.930;2023-05-29T09:47:02;101503.67;;;20.65;38.86
77017;BME280;65949;53.132;17.930;2023-05-29T09:49:31;101504.17;;;20.79;38.44
77017;BME280;65949;53.132;17.930;2023-05-29T09:51:59;101498.44;;;20.91;38.23
77017;BME280;65949;53.132;17.930;2023-05-29T09:54:27;101497.36;;;20.95;37.65
77017;BME280;65949;53.132;17.930;2023-05-29T09:57:00;101491.00;;;20.88;37.52
77017;BME280;65949;53.132;17.930;2023-05-29T09:59:31;101499.29;;;20.99;37.46
77017;BME280;65949;53.132;17.930;2023-05-29T10:02:02;101494.59;;;21.00;37.14
77017;BME280;65949;53.132;17.930;2023-05-29T10:04:30;101491.77;;;21.03;36.97
77017;BME280;65949;53.132;17.930;2023-05-29T10:09:53;101496.62;;;21.36;36.06
77017;BME280;65949;53.132;17.930;2023-05-29T10:12:22;101495.50;;;21.53;36.30
77017;BME280;65949;53.132;17.930;2023-05-29T10:14:51;101496.64;;;21.61;35.85
77017;BME280;65949;53.132;17.930;2023-05-29T10:17:23;101497.30;;;21.64;35.88
77017;BME280;65949;53.132;17.930;2023-05-29T10:19:52;101490.92;;;21.68;35.16
77017;BME280;65949;53.132;17.930;2023-05-29T10:22:23;101487.09;;;21.66;35.13
77017;BME280;65949;53.132;17.930;2023-05-29T10:24:52;101491.36;;;21.68;34.85
77017;BME280;65949;53.132;17.930;2023-05-29T10:27:18;101485.38;;;21.69;34.91
77017;BME280;65949;53.132;17.930;2023-05-29T10:29:53;101487.90;;;21.40;34.76
77017;BME280;65949;53.132;17.930;2023-05-29T10:40:10;101484.98;;;20.92;35.21
77017;BME280;65949;53.132;17.930;2023-05-29T10:42:47;101474.60;;;21.00;35.89
77017;BME280;65949;53.132;17.930;2023-05-29T10:50:41;101488.39;;;20.85;36.27
77017;BME280;65949;53.132;17.930;2023-05-29T10:53:09;101488.73;;;21.20;36.10
77017;BME280;65949;53.132;17.930;2023-05-29T10:55:38;101478.48;;;21.54;35.31
77017;BME280;65949;53.132;17.930;2023-05-29T10:58:05;101476.94;;;21.78;35.24
77017;BME280;65949;53.132;17.930;2023-05-29T11:00:33;101477.90;;;21.95;34.13
77017;BME280;65949;53.132;17.930;2023-05-29T11:03:03;101476.92;;;21.88;34.17
77017;BME280;65949;53.132;17.930;2023-05-29T11:05:30;101477.83;;;21.85;33.87
77017;BME280;65949;53.132;17.930;2023-05-29T11:07:58;101477.52;;;21.71;33.34
77017;BME280;65949;53.132;17.930;2023-05-29T11:10:55;101472.49;;;21.65;33.26
77017;BME280;65949;53.132;17.930;2023-05-29T11:13:24;101472.16;;;21.72;33.40
77017;BME280;65949;53.132;17.930;2023-05-29T11:18:42;101462.66;;;21.69;32.92
77017;BME280;65949;53.132;17.930;2023-05-29T11:23:53;101455.21;;;21.78;33.11
77017;BME280;65949;53.132;17.930;2023-05-29T11:26:22;101454.95;;;21.90;33.23
77017;BME280;65949;53.132;17.930;2023-05-29T11:28:49;101454.32;;;22.14;33.05
77017;BME280;65949;53.132;17.930;2023-05-29T11:31:17;101456.50;;;22.30;32.22
77017;BME280;65949;53.132;17.930;2023-05-29T11:33:50;101455.66;;;22.17;32.23
77017;BME280;65949;53.132;17.930;2023-05-29T11:36:18;101455.44;;;22.10;32.62
77017;BME280;65949;53.132;17.930;2023-05-29T11:38:47;101458.14;;;22.21;32.53
77017;BME280;65949;53.132;17.930;2023-05-29T11:41:16;101457.79;;;22.17;32.26
77017;BME280;65949;53.132;17.930;2023-05-29T11:43:43;101455.00;;;22.43;32.40
77017;BME280;65949;53.132;17.930;2023-05-29T11:46:17;101453.52;;;22.66;31.96
77017;BME280;65949;53.132;17.930;2023-05-29T11:48:46;101444.30;;;22.70;31.71
77017;BME280;65949;53.132;17.930;2023-05-29T11:51:14;101447.58;;;22.67;31.44
77017;BME280;65949;53.132;17.930;2023-05-29T11:53:41;101443.47;;;22.65;31.23
77017;BME280;65949;53.132;17.930;2023-05-29T11:56:10;101443.43;;;22.69;31.54
77017;BME280;65949;53.132;17.930;2023-05-29T11:58:38;101445.30;;;22.76;31.42
77017;BME280;65949;53.132;17.930;2023-05-29T12:01:07;101443.83;;;22.71;31.68
77017;BME280;65949;53.132;17.930;2023-05-29T12:03:38;101449.36;;;22.78;31.26
77017;BME280;65949;53.132;17.930;2023-05-29T12:06:06;101444.97;;;22.68;31.24
77017;BME280;65949;53.132;17.930;2023-05-29T12:08:33;101442.02;;;22.75;31.94
77017;BME280;65949;53.132;17.930;2023-05-29T12:11:00;101440.50;;;22.94;30.97
77017;BME280;65949;53.132;17.930;2023-05-29T12:13:27;101437.15;;;22.97;31.21
77017;BME280;65949;53.132;17.930;2023-05-29T12:15:57;101436.24;;;22.99;30.77
77017;BME280;65949;53.132;17.930;2023-05-29T12:18:25;101441.66;;;22.86;30.67
77017;BME280;65949;53.132;17.930;2023-05-29T12:21:02;101439.80;;;22.78;30.89
77017;BME280;65949;53.132;17.930;2023-05-29T12:23:30;101435.52;;;22.76;30.90
77017;BME280;65949;53.132;17.930;2023-05-29T12:25:58;101435.56;;;22.82;30.92
77017;BME280;65949;53.132;17.930;2023-05-29T12:28:25;101433.66;;;22.90;30.58
77017;BME280;65949;53.132;17.930;2023-05-29T12:30:59;101430.58;;;22.81;30.94
77017;BME280;65949;53.132;17.930;2023-05-29T12:33:32;101432.89;;;22.76;30.77
77017;BME280;65949;53.132;17.930;2023-05-29T12:36:07;101428.73;;;22.73;30.82
77017;BME280;65949;53.132;17.930;2023-05-29T12:38:49;101435.23;;;22.73;30.76
77017;BME280;65949;53.132;17.930;2023-05-29T12:43:57;101433.11;;;22.92;30.57
77017;BME280;65949;53.132;17.930;2023-05-29T12:46:27;101428.27;;;22.91;30.82
77017;BME280;65949;53.132;17.930;2023-05-29T12:48:54;101429.84;;;23.08;30.79
77017;BME280;65949;53.132;17.930;2023-05-29T12:51:27;101431.94;;;23.18;30.40
77017;BME280;65949;53.132;17.930;2023-05-29T12:53:54;101426.07;;;23.17;30.28
77017;BME280;65949;53.132;17.930;2023-05-29T12:56:24;101427.70;;;23.25;29.99
77017;BME280;65949;53.132;17.930;2023-05-29T12:58:52;101422.14;;;23.32;30.45
77017;BME280;65949;53.132;17.930;2023-05-29T13:01:19;101426.75;;;23.29;29.96
77017;BME280;65949;53.132;17.930;2023-05-29T13:03:46;101421.29;;;23.26;30.00
77017;BME280;65949;53.132;17.930;2023-05-29T13:06:13;101420.06;;;23.26;30.07
77017;BME280;65949;53.132;17.930;2023-05-29T13:08:40;101422.44;;;23.23;30.16
77017;BME280;65949;53.132;17.930;2023-05-29T13:11:06;101422.34;;;23.14;29.82
77017;BME280;65949;53.132;17.930;2023-05-29T13:13:33;101421.28;;;23.01;30.17
77017;BME280;65949;53.132;17.930;2023-05-29T13:15:59;101420.73;;;22.95;30.25